Time;durP1;ratioP1;P1;durP2;ratioP2;P2;SDS_P1;SDS_P2;PMS_P1;PMS_P2;Temp;Humidity;BMP_temperature;BMP_pressure;BME280_temperature;BME280_humidity;BME280_pressure;Samples;Min_cycle;Max_cycle;Signal;HPM_P1;HPM_P2
2022/05/26 00:00:35;;;;;;;1.63;1.52;;;21.00;99.90;;;;;;6216444;23;20409;-73
2022/05/26 00:03:01;;;;;;;2.13;1.98;;;21.00;99.90;;;;;;6216201;23;20032;-74
2022/05/26 00:05:27;;;;;;;2.15;1.80;;;21.00;99.90;;;;;;6216477;23;20008;-74
2022/05/26 00:07:56;;;;;;;1.88;1.77;;;21.00;99.90;;;;;;6216530;23;20009;-73
2022/05/26 00:10:22;;;;;;;2.08;1.98;;;21.00;99.90;;;;;;6216116;23;20083;-73
2022/05/26 00:12:49;;;;;;;4.93;2.15;;;21.00;99.90;;;;;;6214724;23;20012;-73
2022/05/26 00:15:15;;;;;;;5.05;2.60;;;21.00;99.90;;;;;;6214777;23;20004;-73
2022/05/26 00:17:41;;;;;;;2.40;1.60;;;21.00;99.90;;;;;;6216472;23;20013;-74
2022/05/26 00:20:09;;;;;;;1.65;1.55;;;21.00;99.90;;;;;;6215938;23;20004;-73
2022/05/26 00:22:35;;;;;;;3.05;1.80;;;21.00;99.90;;;;;;6216294;23;20059;-73
2022/05/26 00:25:01;;;;;;;1.88;1.73;;;21.00;99.90;;;;;;6216217;23;20008;-74
2022/05/26 00:27:27;;;;;;;1.60;1.45;;;21.00;99.90;;;;;;6216082;23;20328;-73
2022/05/26 00:29:53;;;;;;;6.93;2.05;;;21.00;99.90;;;;;;6215933;23;20467;-74
2022/05/26 00:32:19;;;;;;;2.42;2.05;;;20.90;99.90;;;;;;6214134;23;20058;-73
2022/05/26 00:34:44;;;;;;;2.38;2.15;;;20.90;99.90;;;;;;6214220;23;20020;-73
2022/05/26 00:37:10;;;;;;;3.22;1.90;;;20.90;99.90;;;;;;6216092;23;20002;-73
2022/05/26 00:39:38;;;;;;;2.10;2.00;;;20.80;99.90;;;;;;6216184;23;20000;-73
2022/05/26 00:42:05;;;;;;;3.10;2.17;;;20.80;99.90;;;;;;6216114;23;20032;-74
2022/05/26 00:44:33;;;;;;;3.38;2.17;;;20.80;99.90;;;;;;6216320;23;20000;-73
2022/05/26 00:47:11;;;;;;;1.90;1.73;;;20.70;99.90;;;;;;6216234;23;20004;-73
2022/05/26 00:49:48;;;;;;;2.40;2.20;;;20.70;99.90;;;;;;6214135;23;20432;-73
2022/05/26 00:52:21;;;;;;;5.15;2.40;;;20.70;99.90;;;;;;6215724;23;20039;-74
2022/05/26 00:54:50;;;;;;;4.70;2.15;;;20.70;99.90;;;;;;6216215;23;20490;-73
2022/05/26 00:57:37;;;;;;;3.35;2.20;;;20.70;99.90;;;;;;6215847;23;20526;-73
2022/05/26 01:00:09;;;;;;;2.70;2.38;;;20.70;99.90;;;;;;6215486;23;20324;-74
2022/05/26 01:02:41;;;;;;;2.20;2.05;;;20.70;99.90;;;;;;6215504;23;20000;-73
2022/05/26 01:05:27;;;;;;;6.00;2.63;;;20.70;99.90;;;;;;6216089;23;20031;-73
2022/05/26 01:07:55;;;;;;;3.53;1.90;;;20.70;99.90;;;;;;6215280;23;20005;-74
2022/05/26 01:10:21;;;;;;;4.28;2.10;;;20.80;99.90;;;;;;6213279;23;20062;-73
2022/05/26 01:12:47;;;;;;;3.28;2.10;;;20.80;99.90;;;;;;6213934;23;20005;-73
2022/05/26 01:15:18;;;;;;;2.53;2.10;;;20.80;99.90;;;;;;6215808;23;20001;-73
2022/05/26 01:18:01;;;;;;;3.42;2.15;;;20.80;99.90;;;;;;6215869;23;20001;-73
2022/05/26 01:20:38;;;;;;;2.83;2.17;;;20.80;99.90;;;;;;6214086;23;20046;-73
2022/05/26 01:23:29;;;;;;;2.80;2.58;;;20.80;99.90;;;;;;6213931;23;20005;-73
2022/05/26 01:26:31;;;;;;;2.00;1.80;;;20.80;99.90;;;;;;6215426;23;20076;-73
2022/05/26 01:29:10;;;;;;;1.75;1.60;;;20.80;99.90;;;;;;6215338;23;20004;-74
2022/05/26 01:31:43;;;;;;;3.05;1.92;;;20.80;99.90;;;;;;6215194;23;20001;-73
2022/05/26 01:34:53;;;;;;;2.08;1.92;;;20.80;99.90;;;;;;6215286;23;20013;-73
2022/05/26 01:37:33;;;;;;;2.67;1.65;;;20.80;99.90;;;;;;6158677;23;20051;-73
2022/05/26 01:40:05;;;;;;;3.10;2.00;;;20.80;99.90;;;;;;6215495;23;20076;-73
2022/05/26 01:43:06;;;;;;;2.20;2.00;;;20.80;99.90;;;;;;6215436;23;20012;-74
2022/05/26 01:45:46;;;;;;;2.33;1.80;;;20.70;99.90;;;;;;6215425;23;20000;-73
2022/05/26 01:48:44;;;;;;;3.25;2.15;;;20.60;99.90;;;;;;6214004;23;20095;-74
2022/05/26 01:51:21;;;;;;;2.05;1.85;;;20.50;99.90;;;;;;6215383;23;20000;-73
2022/05/26 01:54:06;;;;;;;2.10;1.90;;;20.40;99.90;;;;;;6215247;23;20425;-73
2022/05/26 01:56:56;;;;;;;2.25;2.05;;;20.40;99.90;;;;;;6213699;23;20007;-74
2022/05/26 01:59:37;;;;;;;3.22;2.95;;;20.30;99.90;;;;;;6215193;23;20317;-73
2022/05/26 02:02:07;;;;;;;3.80;1.70;;;20.30;99.90;;;;;;6215402;23;20008;-74
2022/05/26 02:04:45;;;;;;;2.63;1.90;;;20.30;99.90;;;;;;6214993;23;20224;-73
2022/05/26 02:07:22;;;;;;;2.20;1.83;;;20.30;99.90;;;;;;6215184;23;20005;-74
2022/05/26 02:09:50;;;;;;;4.05;1.80;;;20.40;99.90;;;;;;6215102;23;20005;-74
2022/05/26 02:12:25;;;;;;;1.70;1.60;;;20.40;99.90;;;;;;6215018;23;20012;-73
2022/05/26 02:14:56;;;;;;;3.60;1.88;;;20.30;99.90;;;;;;6213642;23;20364;-73
2022/05/26 02:17:45;;;;;;;2.33;2.03;;;20.30;99.90;;;;;;6215247;23;20004;-73
2022/05/26 02:20:19;;;;;;;1.70;1.60;;;20.20;99.90;;;;;;6215273;23;20055;-73
2022/05/26 02:22:51;;;;;;;1.77;1.55;;;20.20;99.90;;;;;;6215214;23;20051;-73
2022/05/26 02:25:23;;;;;;;3.22;2.00;;;20.10;99.90;;;;;;6215208;23;20001;-74
2022/05/26 02:27:53;;;;;;;2.60;1.70;;;20.10;99.90;;;;;;6213548;23;20008;-74
2022/05/26 02:30:21;;;;;;;2.75;1.38;;;20.10;99.90;;;;;;6215068;23;20008;-73
2022/05/26 02:32:49;;;;;;;2.38;1.65;;;20.10;99.90;;;;;;6213290;23;20036;-73
2022/05/26 02:35:22;;;;;;;3.72;1.70;;;20.10;99.90;;;;;;6214829;23;20036;-73
2022/05/26 02:37:52;;;;;;;1.83;1.73;;;20.10;99.90;;;;;;6215182;23;20076;-73
2022/05/26 02:40:18;;;;;;;2.00;1.70;;;20.00;99.90;;;;;;6215034;23;20046;-73
2022/05/26 02:42:49;;;;;;;2.50;2.20;;;20.00;99.90;;;;;;6215107;23;20002;-73
2022/05/26 02:45:32;;;;;;;4.70;2.13;;;19.90;99.90;;;;;;6214713;23;20001;-73
2022/05/26 02:48:15;;;;;;;2.53;1.63;;;19.90;99.90;;;;;;6214880;23;20004;-73
2022/05/26 02:51:13;;;;;;;1.63;1.52;;;19.90;99.90;;;;;;6214922;23;20366;-73
2022/05/26 02:53:51;;;;;;;3.15;1.73;;;20.00;99.90;;;;;;6214756;23;20087;-73
2022/05/26 02:56:41;;;;;;;1.95;1.80;;;19.90;99.90;;;;;;6214873;23;20000;-73
2022/05/26 02:59:33;;;;;;;1.83;1.70;;;19.90;99.90;;;;;;6214715;23;20056;-73
2022/05/26 03:02:09;;;;;;;1.90;1.80;;;19.90;99.90;;;;;;6214993;23;20007;-73
2022/05/26 03:04:44;;;;;;;1.92;1.83;;;19.90;99.90;;;;;;6214920;23;20000;-73
2022/05/26 03:07:15;;;;;;;2.20;1.92;;;19.90;99.90;;;;;;6213030;23;20360;-73
2022/05/26 03:09:42;;;;;;;1.65;1.52;;;19.90;99.90;;;;;;6214801;23;20016;-73
2022/05/26 03:12:26;;;;;;;1.48;1.42;;;19.90;99.90;;;;;;6214827;23;20079;-73
2022/05/26 03:14:52;;;;;;;3.05;2.10;;;19.80;99.90;;;;;;6215172;23;20055;-73
2022/05/26 03:17:18;;;;;;;3.58;1.83;;;19.80;99.90;;;;;;6217013;23;19997;-73
2022/05/26 03:19:44;;;;;;;6.13;2.08;;;19.70;99.90;;;;;;6216745;23;20068;-73
2022/05/26 03:22:10;;;;;;;1.70;1.60;;;19.70;99.90;;;;;;6216687;23;20036;-73
2022/05/26 03:24:36;;;;;;;5.22;1.70;;;19.70;99.90;;;;;;6216753;23;20054;-73
2022/05/26 03:27:02;;;;;;;2.10;1.90;;;19.70;99.90;;;;;;6216874;23;20031;-74
2022/05/26 03:29:27;;;;;;;1.85;1.67;;;19.60;99.90;;;;;;6216502;23;19997;-73
2022/05/26 03:31:53;;;;;;;3.13;2.08;;;19.60;99.90;;;;;;6216588;23;20004;-73
2022/05/26 03:42:32;;;;;;;2.20;1.67;;;19.70;99.90;;;;;;6216786;23;20019;-73
2022/05/26 03:44:58;;;;;;;3.35;2.42;;;19.70;99.90;;;;;;6216583;23;20000;-73
2022/05/26 03:47:24;;;;;;;5.65;1.92;;;19.70;99.90;;;;;;6216445;23;20083;-73
2022/05/26 03:49:49;;;;;;;2.10;1.95;;;19.60;99.90;;;;;;6216419;23;20024;-73
2022/05/26 03:52:16;;;;;;;1.90;1.80;;;19.70;99.90;;;;;;6214932;23;20421;-73
2022/05/26 03:54:41;;;;;;;1.80;1.70;;;19.70;99.90;;;;;;6216613;23;20317;-73
2022/05/26 03:57:07;;;;;;;3.53;2.22;;;19.80;99.90;;;;;;6216490;23;19996;-73
2022/05/26 03:59:33;;;;;;;2.15;1.95;;;19.80;99.90;;;;;;6214575;23;20040;-73
2022/05/26 04:01:59;;;;;;;3.33;1.85;;;19.70;99.90;;;;;;6216321;23;20001;-73
2022/05/26 04:04:25;;;;;;;2.42;2.20;;;19.70;99.90;;;;;;6216429;23;20005;-73
2022/05/26 04:06:51;;;;;;;4.03;2.25;;;19.70;99.90;;;;;;6216163;23;20439;-74
2022/05/26 04:09:17;;;;;;;5.15;1.80;;;19.60;99.90;;;;;;6214424;23;20008;-73
2022/05/26 04:11:43;;;;;;;2.00;1.90;;;19.60;99.90;;;;;;6216383;23;20004;-73
2022/05/26 04:14:09;;;;;;;2.22;2.03;;;19.60;99.90;;;;;;6216259;23;19996;-73
2022/05/26 04:16:35;;;;;;;4.93;1.98;;;19.60;99.90;;;;;;6216361;23;20007;-73
2022/05/26 04:19:01;;;;;;;4.50;1.90;;;19.50;99.90;;;;;;6216430;23;20072;-73
2022/05/26 04:21:27;;;;;;;2.92;2.13;;;19.40;99.90;;;;;;6216081;23;20098;-73
2022/05/26 04:23:52;;;;;;;2.10;1.90;;;19.40;99.90;;;;;;6216222;23;20004;-73
2022/05/26 04:26:18;;;;;;;2.60;1.80;;;19.40;99.90;;;;;;6216428;23;20079;-73
2022/05/26 04:28:44;;;;;;;3.25;2.20;;;19.50;99.90;;;;;;6215904;23;20001;-73
2022/05/26 04:31:10;;;;;;;1.90;1.80;;;19.40;99.90;;;;;;6216025;23;20425;-73
2022/05/26 04:33:36;;;;;;;1.90;1.80;;;19.50;99.90;;;;;;6215885;23;20017;-73
2022/05/26 04:36:05;;;;;;;2.72;1.75;;;19.60;99.90;;;;;;6214400;23;20417;-73
2022/05/26 04:38:31;;;;;;;3.33;1.80;;;19.60;99.90;;;;;;6216287;23;20076;-73
2022/05/26 04:41:03;;;;;;;4.10;1.92;;;19.60;99.90;;;;;;6215357;23;20007;-74
2022/05/26 04:43:31;;;;;;;3.03;1.60;;;19.70;99.90;;;;;;6214986;23;20008;-73
2022/05/26 04:45:57;;;;;;;4.43;1.90;;;19.70;99.90;;;;;;6213277;23;20005;-73
2022/05/26 04:48:23;;;;;;;7.78;2.63;;;19.80;99.90;;;;;;6213162;23;20095;-73
2022/05/26 04:50:50;;;;;;;2.83;1.77;;;19.90;99.90;;;;;;6213151;23;20368;-73
2022/05/26 04:53:17;;;;;;;2.22;2.10;;;19.90;99.90;;;;;;6214506;23;20004;-74
2022/05/26 04:55:43;;;;;;;1.60;1.50;;;19.90;99.90;;;;;;6214557;23;20406;-73
2022/05/26 04:58:09;;;;;;;2.70;1.60;;;19.90;99.90;;;;;;6214603;23;20001;-73
2022/05/26 05:00:35;;;;;;;2.28;1.98;;;19.90;99.90;;;;;;6214372;23;20108;-73
2022/05/26 05:03:01;;;;;;;1.45;1.35;;;20.00;99.90;;;;;;6214673;23;20054;-73
2022/05/26 05:05:27;;;;;;;3.08;1.60;;;20.00;99.90;;;;;;6215865;23;20004;-73
2022/05/26 05:07:52;;;;;;;2.05;1.95;;;20.10;99.90;;;;;;6216157;23;20035;-73
2022/05/26 05:10:18;;;;;;;3.95;1.98;;;20.10;99.90;;;;;;6215803;23;20008;-73
2022/05/26 05:12:45;;;;;;;3.15;1.77;;;20.20;99.90;;;;;;6215557;23;20005;-73
2022/05/26 05:15:27;;;;;;;6.22;1.95;;;20.20;99.90;;;;;;6216001;23;20001;-73
2022/05/26 05:17:52;;;;;;;2.63;2.25;;;20.30;99.90;;;;;;6214569;23;20001;-73
2022/05/26 05:20:18;;;;;;;1.65;1.55;;;20.30;99.90;;;;;;6215795;23;20003;-73
2022/05/26 05:22:52;;;;;;;1.70;1.60;;;20.40;99.90;;;;;;6213892;23;20012;-73
2022/05/26 05:25:20;;;;;;;2.10;2.00;;;20.50;99.90;;;;;;6215627;23;20004;-73
2022/05/26 05:28:00;;;;;;;2.72;2.15;;;20.60;99.90;;;;;;6215248;23;20009;-73
2022/05/26 05:30:35;;;;;;;1.98;1.83;;;20.60;99.90;;;;;;6215245;23;20413;-73
2022/05/26 05:33:07;;;;;;;2.65;1.90;;;20.70;99.90;;;;;;6213466;23;20443;-73
2022/05/26 05:35:40;;;;;;;1.75;1.65;;;20.70;99.90;;;;;;6210503;23;20109;-73
2022/05/26 05:38:06;;;;;;;2.25;1.90;;;20.90;99.90;;;;;;6212922;23;20478;-73
2022/05/26 05:40:32;;;;;;;2.00;1.90;;;20.90;99.90;;;;;;6212018;23;20083;-73
2022/05/26 05:42:57;;;;;;;1.92;1.60;;;21.10;99.90;;;;;;6215041;23;20005;-73
2022/05/26 05:45:23;;;;;;;2.00;1.90;;;21.10;99.90;;;;;;6212822;23;20009;-73
2022/05/26 05:47:49;;;;;;;4.78;1.55;;;21.20;99.90;;;;;;6214694;23;20429;-73
2022/05/26 05:50:15;;;;;;;1.70;1.60;;;21.30;99.90;;;;;;6213766;23;20040;-73
2022/05/26 05:52:40;;;;;;;5.55;1.83;;;21.40;99.90;;;;;;6215404;23;20016;-73
2022/05/26 05:55:07;;;;;;;2.45;2.25;;;21.40;99.90;;;;;;6213794;23;20012;-73
2022/05/26 05:57:32;;;;;;;5.55;2.42;;;21.50;99.90;;;;;;6215326;23;20007;-74
2022/05/26 05:59:58;;;;;;;3.50;3.00;;;21.50;99.90;;;;;;6213696;23;20451;-73
2022/05/26 06:02:24;;;;;;;6.53;2.65;;;21.50;99.90;;;;;;6215354;23;20009;-73
2022/05/26 06:04:52;;;;;;;4.82;3.40;;;21.60;99.90;;;;;;6215168;23;20000;-73
2022/05/26 06:07:21;;;;;;;4.28;3.53;;;21.60;99.90;;;;;;6215117;23;20092;-73
2022/05/26 06:09:48;;;;;;;3.28;3.08;;;21.60;99.90;;;;;;6214631;23;20425;-73
2022/05/26 06:12:16;;;;;;;3.38;3.13;;;21.70;99.90;;;;;;6215171;23;20000;-73
2022/05/26 06:14:42;;;;;;;4.15;3.35;;;21.70;99.90;;;;;;6215516;23;20000;-73
2022/05/26 06:17:11;;;;;;;7.50;4.28;;;21.80;99.90;;;;;;6213762;23;20063;-73
2022/05/26 06:19:38;;;;;;;4.80;3.50;;;21.80;99.90;;;;;;6215091;23;20001;-73
2022/05/26 06:22:09;;;;;;;4.47;3.83;;;21.80;99.90;;;;;;6213472;23;20016;-73
2022/05/26 06:24:37;;;;;;;5.05;3.97;;;21.80;99.90;;;;;;6213616;23;20433;-73
2022/05/26 06:29:49;;;;;;;6.30;4.07;;;21.90;99.90;;;;;;6213840;23;20004;-73
2022/05/26 06:29:49;;;;;;;7.13;4.00;;;21.90;99.90;;;;;;6215225;23;20031;-73
2022/05/26 06:37:45;;;;;;;5.05;3.97;;;22.00;99.90;;;;;;6215288;23;20073;-73
2022/05/26 06:40:14;;;;;;;8.07;4.60;;;22.10;99.90;;;;;;6215156;23;20482;-74
2022/05/26 06:42:40;;;;;;;7.63;4.50;;;22.10;99.90;;;;;;6215285;23;20008;-73
2022/05/26 06:45:06;;;;;;;7.78;4.32;;;22.10;99.90;;;;;;6215145;23;20035;-73
2022/05/26 06:47:32;;;;;;;6.38;5.05;;;22.20;99.90;;;;;;6215249;23;20005;-73
2022/05/26 06:49:57;;;;;;;4.28;4.03;;;22.20;99.90;;;;;;6214710;23;20076;-73
2022/05/26 06:52:25;;;;;;;7.57;4.57;;;22.20;99.90;;;;;;6215100;23;20024;-73
2022/05/26 06:54:51;;;;;;;5.18;4.53;;;22.20;99.90;;;;;;6215103;23;19996;-73
2022/05/26 06:57:17;;;;;;;4.93;4.28;;;22.30;99.90;;;;;;6213466;23;20321;-73
2022/05/26 06:59:43;;;;;;;6.53;5.00;;;22.30;99.90;;;;;;6212721;23;20001;-73
2022/05/26 07:02:12;;;;;;;5.07;3.92;;;22.30;99.90;;;;;;6215015;23;20412;-73
2022/05/26 07:04:39;;;;;;;5.35;3.65;;;22.30;99.90;;;;;;6213084;23;20007;-74
2022/05/26 07:07:06;;;;;;;5.20;4.10;;;22.30;99.90;;;;;;6211831;23;20009;-74
2022/05/26 07:09:31;;;;;;;5.38;3.90;;;22.40;99.90;;;;;;6215001;23;20079;-78
2022/05/26 07:11:58;;;;;;;3.58;3.38;;;22.50;99.90;;;;;;6215097;23;20029;-78
2022/05/26 07:14:24;;;;;;;5.65;3.50;;;22.60;99.90;;;;;;6213479;23;20008;-78
2022/05/26 07:16:50;;;;;;;4.85;3.47;;;22.60;99.90;;;;;;6215022;23;19997;-77
2022/05/26 07:19:19;;;;;;;6.32;3.58;;;22.70;99.90;;;;;;6215073;23;20031;-78
2022/05/26 07:21:46;;;;;;;4.78;4.25;;;22.70;99.90;;;;;;6215267;23;20004;-78
2022/05/26 07:24:20;;;;;;;5.07;4.22;;;22.70;99.90;;;;;;6215280;23;20004;-77
2022/05/26 07:26:47;;;;;;;6.75;3.90;;;22.80;99.90;;;;;;6213647;23;20005;-78
2022/05/26 07:29:14;;;;;;;6.18;4.00;;;22.80;99.90;;;;;;6214871;23;20349;-78
2022/05/26 07:31:40;;;;;;;6.15;4.00;;;22.90;99.90;;;;;;6215165;23;20051;-78
2022/05/26 07:34:07;;;;;;;6.45;4.60;;;22.90;99.90;;;;;;6214934;23;20035;-78
2022/05/26 07:42:05;;;;;;;7.35;3.70;;;23.00;99.90;;;;;;6215137;23;20379;-78
2022/05/26 07:44:38;;;;;;;5.95;4.32;;;23.10;99.90;;;;;;6215157;23;20080;-78
2022/05/26 07:47:05;;;;;;;4.88;4.15;;;23.20;99.90;;;;;;6215148;23;20035;-78
2022/05/26 07:49:33;;;;;;;7.18;4.57;;;23.20;99.90;;;;;;6215012;23;20440;-78
2022/05/26 07:52:01;;;;;;;5.80;4.30;;;23.20;99.90;;;;;;6215021;23;20376;-77
2022/05/26 07:54:29;;;;;;;7.00;3.80;;;23.30;99.90;;;;;;6214702;23;19997;-78
2022/05/26 07:56:56;;;;;;;8.55;3.85;;;23.30;99.90;;;;;;6215234;23;20443;-78
2022/05/26 07:59:22;;;;;;;8.93;5.20;;;23.40;99.90;;;;;;6215020;23;20460;-78
2022/05/26 08:01:48;;;;;;;6.88;4.13;;;23.40;99.90;;;;;;6215065;23;20004;-78
2022/05/26 08:04:17;;;;;;;6.53;4.65;;;23.40;99.90;;;;;;6216864;23;20075;-74
2022/05/26 08:06:47;;;;;;;4.22;3.80;;;23.40;99.90;;;;;;6216105;23;20429;-74
2022/05/26 08:09:16;;;;;;;4.53;4.13;;;23.50;99.90;;;;;;6216326;23;19996;-73
2022/05/26 08:11:42;;;;;;;6.68;4.57;;;23.70;99.90;;;;;;6216241;23;20019;-73
2022/05/26 08:14:09;;;;;;;7.03;4.65;;;23.80;99.90;;;;;;6216363;23;20059;-73
2022/05/26 08:16:35;;;;;;;7.75;4.55;;;23.80;99.90;;;;;;6214757;23;20080;-73
2022/05/26 08:19:02;;;;;;;6.35;4.13;;;23.80;99.90;;;;;;6216259;23;20004;-73
2022/05/26 08:21:28;;;;;;;6.35;4.93;;;24.00;99.90;;;;;;6214842;23;20005;-74
2022/05/26 08:23:54;;;;;;;5.00;4.53;;;24.00;99.90;;;;;;6214733;23;20008;-73
2022/05/26 08:26:20;;;;;;;9.32;4.82;;;24.10;99.90;;;;;;6214677;23;20016;-74
2022/05/26 08:28:46;;;;;;;10.70;4.90;;;24.10;99.90;;;;;;6216179;23;20001;-74
2022/05/26 08:31:15;;;;;;;6.13;5.20;;;24.20;99.90;;;;;;6216092;23;20020;-73
2022/05/26 08:33:42;;;;;;;9.48;5.75;;;24.20;99.90;;;;;;6215856;23;20008;-73
2022/05/26 08:36:11;;;;;;;7.18;6.07;;;24.30;99.90;;;;;;6214589;23;20005;-74
2022/05/26 08:38:38;;;;;;;11.32;5.93;;;24.30;99.90;;;;;;6216030;23;20084;-74
2022/05/26 08:41:05;;;;;;;7.93;6.20;;;24.20;99.90;;;;;;6214292;23;20009;-73
2022/05/26 08:43:41;;;;;;;8.90;5.32;;;24.30;99.90;;;;;;6216135;23;20418;-73
2022/05/26 08:46:09;;;;;;;10.95;6.75;;;24.40;99.90;;;;;;6216174;23;20028;-73
2022/05/26 08:49:11;;;;;;;9.45;6.65;;;24.50;99.90;;;;;;6216086;23;20005;-74
2022/05/26 08:51:53;;;;;;;11.68;7.40;;;24.60;99.90;;;;;;6124186;23;20069;-74
2022/05/26 08:54:37;;;;;;;10.82;5.85;;;24.60;99.90;;;;;;6207530;23;20443;-74
2022/05/26 08:57:05;;;;;;;9.90;6.68;;;24.60;99.90;;;;;;6214440;23;20005;-73
2022/05/26 08:59:41;;;;;;;11.38;6.85;;;24.60;99.90;;;;;;6215922;23;20020;-73
2022/05/26 09:02:21;;;;;;;15.18;7.88;;;24.70;99.90;;;;;;6214392;23;20058;-73
2022/05/26 09:04:47;;;;;;;8.75;7.38;;;24.70;99.90;;;;;;6216013;23;20074;-73
2022/05/26 09:12:59;;;;;;;12.38;8.57;;;24.50;99.90;;;;;;6215751;23;20051;-72
2022/05/26 09:15:27;;;;;;;10.15;7.10;;;24.50;99.90;;;;;;6216053;23;20004;-73
2022/05/26 09:17:52;;;;;;;10.00;7.55;;;24.50;99.90;;;;;;6215231;23;20004;-72
2022/05/26 09:20:39;;;;;;;8.50;7.65;;;24.50;99.90;;;;;;6214263;23;20023;-72
2022/05/26 09:23:23;;;;;;;9.00;7.72;;;24.50;99.90;;;;;;6214004;23;20275;-76
2022/05/26 09:26:16;;;;;;;8.73;7.70;;;24.50;99.90;;;;;;6215466;23;20075;-76
2022/05/26 09:28:46;;;;;;;9.45;8.13;;;24.60;99.90;;;;;;6212077;23;20107;-76
2022/05/26 09:31:31;;;;;;;11.43;7.80;;;24.60;99.90;;;;;;6215954;23;20012;-76
2022/05/26 09:34:09;;;;;;;9.63;7.18;;;24.60;99.90;;;;;;6215749;23;20129;-76
2022/05/26 09:37:00;;;;;;;10.30;7.78;;;24.70;99.90;;;;;;6215985;23;20001;-76
2022/05/26 09:39:34;;;;;;;11.80;7.45;;;24.70;99.90;;;;;;6215551;23;20001;-76
2022/05/26 09:42:02;;;;;;;13.38;7.50;;;24.70;99.90;;;;;;6215853;23;20076;-76
2022/05/26 09:44:53;;;;;;;12.43;8.32;;;24.70;99.90;;;;;;6215384;23;20063;-76
2022/05/26 09:47:21;;;;;;;11.05;8.38;;;24.80;99.90;;;;;;6215911;23;20005;-76
2022/05/26 09:49:53;;;;;;;13.27;7.72;;;24.80;99.90;;;;;;6213941;23;20332;-76
2022/05/26 09:52:23;;;;;;;13.13;7.22;;;24.90;99.90;;;;;;6215277;23;20026;-77
2022/05/26 09:55:04;;;;;;;10.90;8.32;;;24.90;99.90;;;;;;6215701;23;19997;-76
2022/05/26 09:57:30;;;;;;;14.45;8.57;;;24.90;99.90;;;;;;6214273;23;20007;-76
2022/05/26 09:59:56;;;;;;;15.05;7.90;;;24.90;99.90;;;;;;6213941;23;19996;-76
2022/05/26 10:02:33;;;;;;;10.93;6.68;;;25.00;99.90;;;;;;6215757;23;20056;-76
2022/05/26 10:05:17;;;;;;;8.10;7.30;;;25.00;99.90;;;;;;6215565;23;20007;-77
2022/05/26 10:08:10;;;;;;;9.60;7.57;;;25.20;99.90;;;;;;6215428;23;20001;-77
2022/05/26 10:10:49;;;;;;;9.60;7.72;;;25.10;99.90;;;;;;6213886;23;20409;-76
2022/05/26 10:13:42;;;;;;;13.07;8.98;;;25.20;99.90;;;;;;6215609;23;20004;-76
2022/05/26 10:16:27;;;;;;;11.30;8.32;;;25.10;99.90;;;;;;6215828;23;20001;-76
2022/05/26 10:19:11;;;;;;;13.02;8.10;;;25.00;99.90;;;;;;6215738;23;19997;-76
2022/05/26 10:22:00;;;;;;;19.00;8.85;;;25.00;99.90;;;;;;6215542;23;20001;-76
2022/05/26 10:24:41;;;;;;;8.85;7.97;;;25.00;99.90;;;;;;6215355;23;20003;-76
2022/05/26 10:27:27;;;;;;;18.83;8.73;;;25.00;99.90;;;;;;6215440;23;20004;-76
2022/05/26 10:30:04;;;;;;;14.75;8.95;;;25.00;99.90;;;;;;6213772;23;20001;-76
2022/05/26 10:32:51;;;;;;;13.77;8.60;;;25.00;99.90;;;;;;6215311;23;20054;-76
2022/05/26 10:35:22;;;;;;;14.68;8.07;;;24.90;99.90;;;;;;6215016;23;20016;-76
2022/05/26 10:38:03;;;;;;;12.60;8.13;;;25.00;99.90;;;;;;6215419;23;20444;-76
2022/05/26 10:40:49;;;;;;;10.70;8.13;;;24.90;99.90;;;;;;6215549;23;20047;-76
2022/05/26 10:43:33;;;;;;;17.67;9.13;;;24.90;99.90;;;;;;6215466;23;20425;-76
2022/05/26 10:46:00;;;;;;;9.60;7.90;;;25.00;99.90;;;;;;6215407;23;20001;-76
2022/05/26 10:48:36;;;;;;;10.05;7.65;;;25.00;99.90;;;;;;6214721;23;20054;-77
2022/05/26 10:51:10;;;;;;;10.82;7.50;;;25.00;99.90;;;;;;6214427;23;20001;-76
2022/05/26 10:53:51;;;;;;;13.15;7.40;;;25.10;99.90;;;;;;6214191;23;20032;-76
2022/05/26 10:56:46;;;;;;;13.30;8.43;;;25.30;99.90;;;;;;6215400;23;20000;-76
2022/05/26 10:59:24;;;;;;;11.73;7.72;;;25.30;99.90;;;;;;6215127;23;20007;-76
2022/05/26 11:02:05;;;;;;;15.90;7.90;;;25.20;99.90;;;;;;6215178;23;19996;-76
2022/05/26 11:04:59;;;;;;;11.75;7.78;;;25.30;99.90;;;;;;6215282;23;20075;-76
2022/05/26 11:07:53;;;;;;;14.82;7.80;;;25.30;99.90;;;;;;6215528;23;20087;-76
2022/05/26 11:10:28;;;;;;;9.48;6.82;;;25.40;99.90;;;;;;6215130;23;20005;-76
2022/05/26 11:13:02;;;;;;;11.32;7.57;;;25.40;99.90;;;;;;6215198;23;20062;-77
2022/05/26 11:18:33;;;;;;;13.45;6.05;;;25.40;99.90;;;;;;6215293;23;20429;-77
2022/05/26 11:21:00;;;;;;;12.32;6.22;;;25.50;99.90;;;;;;6215666;23;20000;-76
2022/05/26 11:23:28;;;;;;;10.88;6.07;;;25.60;99.90;;;;;;6215223;23;20055;-76
2022/05/26 11:26:21;;;;;;;9.25;6.57;;;25.70;99.90;;;;;;6215240;23;20370;-76
2022/05/26 11:28:53;;;;;;;11.48;6.72;;;25.80;99.90;;;;;;6215095;23;20079;-76
2022/05/26 11:37:28;;;;;;;8.27;6.47;;;26.00;99.90;;;;;;6215256;23;20015;-77
2022/05/26 11:40:01;;;;;;;12.27;6.90;;;26.20;99.40;;;;;;6217077;23;20455;-77
2022/05/26 11:42:35;;;;;;;12.90;6.25;;;26.20;98.70;;;;;;6217148;23;20007;-77
2022/05/26 11:45:21;;;;;;;11.50;6.38;;;26.30;98.20;;;;;;6217215;23;20337;-77
2022/05/26 11:47:52;;;;;;;11.23;6.32;;;26.40;98.20;;;;;;6217012;23;19997;-77
2022/05/26 11:50:36;;;;;;;10.20;6.13;;;26.40;97.70;;;;;;6216954;23;20004;-77
2022/05/26 11:53:05;;;;;;;8.48;6.68;;;26.60;97.90;;;;;;6217066;23;20007;-78
2022/05/26 11:55:53;;;;;;;11.70;6.03;;;26.80;97.20;;;;;;6217034;23;19997;-77
2022/05/26 11:58:31;;;;;;;9.07;5.68;;;26.80;96.50;;;;;;6216969;23;20524;-77
2022/05/26 12:01:29;;;;;;;8.73;5.82;;;26.90;96.60;;;;;;6216801;23;20008;-77
2022/05/26 12:03:54;;;;;;;21.30;5.85;;;26.90;97.30;;;;;;6166856;23;20008;-77
2022/05/26 12:06:38;;;;;;;8.70;5.45;;;26.90;95.70;;;;;;6216877;23;20028;-77
2022/05/26 12:09:11;;;;;;;10.70;5.47;;;27.00;96.20;;;;;;6216823;23;20076;-77
2022/05/26 12:12:00;;;;;;;12.93;5.93;;;27.10;96.20;;;;;;6215368;23;20336;-77
2022/05/26 12:14:41;;;;;;;8.90;5.60;;;27.20;95.70;;;;;;6216908;23;20388;-77
2022/05/26 12:17:51;;;;;;;9.23;5.45;;;27.30;95.90;;;;;;6216747;23;19996;-77
2022/05/26 12:20:17;;;;;;;8.23;5.35;;;27.40;95.70;;;;;;6124778;23;20135;-77
2022/05/26 12:22:54;;;;;;;9.15;6.32;;;27.50;95.30;;;;;;6203192;23;20044;-77
2022/05/26 12:25:26;;;;;;;10.38;5.43;;;27.50;95.80;;;;;;6216805;23;20503;-77
2022/05/26 12:27:53;;;;;;;11.18;5.53;;;27.50;94.90;;;;;;6215659;23;20007;-78
2022/05/26 12:30:43;;;;;;;8.82;5.22;;;27.50;95.50;;;;;;6214424;23;20000;-78
2022/05/26 12:33:18;;;;;;;11.00;5.45;;;27.50;96.00;;;;;;6212216;23;20059;-78
2022/05/26 12:36:08;;;;;;;15.18;6.15;;;27.50;96.70;;;;;;6214263;23;20020;-78
2022/05/26 12:39:07;;;;;;;13.45;6.05;;;27.50;95.90;;;;;;6213668;23;20075;-78
2022/05/26 12:41:54;;;;;;;15.18;7.20;;;27.50;96.60;;;;;;6214294;23;20001;-79
2022/05/26 12:44:35;;;;;;;12.02;6.25;;;27.60;96.50;;;;;;6212320;23;20005;-79
2022/05/26 12:47:16;;;;;;;9.97;6.63;;;27.60;96.70;;;;;;6213850;23;20001;-77
2022/05/26 12:50:05;;;;;;;17.02;6.75;;;27.60;95.90;;;;;;6213555;23;20136;-79
2022/05/26 12:52:40;;;;;;;11.57;6.50;;;27.90;96.20;;;;;;6214204;23;20676;-78
2022/05/26 12:55:05;;;;;;;14.50;6.75;;;28.20;96.10;;;;;;6213927;23;20001;-79
2022/05/26 12:57:32;;;;;;;7.93;6.53;;;28.30;94.70;;;;;;6212024;23;20058;-80
2022/05/26 13:00:32;;;;;;;11.90;7.10;;;28.60;94.90;;;;;;6212651;23;20004;-78
2022/05/26 13:03:02;;;;;;;8.77;6.40;;;28.70;93.80;;;;;;6213413;23;20671;-78
2022/05/26 13:05:33;;;;;;;7.85;5.93;;;28.90;94.20;;;;;;6213485;23;20004;-78
2022/05/26 13:07:59;;;;;;;11.35;6.07;;;29.20;94.70;;;;;;6213731;23;20005;-78
2022/05/26 13:10:31;;;;;;;16.20;7.32;;;29.30;93.90;;;;;;6213762;23;20000;-78
2022/05/26 13:12:57;;;;;;;;;;;29.30;92.90;;;;;;6214054;23;20005;-78
2022/05/26 13:15:26;;;;;;;10.80;7.00;;;29.30;92.20;;;;;;6213505;23;19900;-78
2022/05/26 13:17:52;;;;;;;8.88;6.85;;;29.50;92.50;;;;;;6212123;23;19997;-78
2022/05/26 13:20:37;;;;;;;12.85;6.13;;;29.50;92.90;;;;;;6211512;23;20055;-78
2022/05/26 13:23:03;;;;;;;11.38;6.25;;;29.60;93.10;;;;;;6213870;23;20024;-78
2022/05/26 13:25:34;;;;;;;11.45;6.78;;;29.90;93.80;;;;;;6211952;23;20488;-77
2022/05/26 13:28:08;;;;;;;7.35;6.28;;;29.90;92.90;;;;;;6213963;23;20051;-78
2022/05/26 13:33:43;;;;;;;8.60;5.82;;;30.10;92.60;;;;;;6213035;23;20104;-77
2022/05/26 13:36:19;;;;;;;8.80;5.63;;;30.20;92.60;;;;;;6213331;23;20333;-78
2022/05/26 13:38:46;;;;;;;10.57;6.80;;;30.30;92.80;;;;;;6213658;23;20001;-77
2022/05/26 13:41:19;;;;;;;15.55;7.05;;;30.50;92.30;;;;;;6213658;23;19996;-77
2022/05/26 13:43:46;;;;;;;10.70;6.40;;;30.70;91.60;;;;;;6214078;23;20004;-77
2022/05/26 13:46:23;;;;;;;15.95;7.15;;;30.70;91.30;;;;;;6213622;23;20011;-77
2022/05/26 13:48:54;;;;;;;11.60;7.20;;;30.50;90.50;;;;;;6213252;23;20087;-76
2022/05/26 13:51:29;;;;;;;7.70;6.85;;;30.20;90.70;;;;;;6212948;23;20003;-76